Ferda, Arkansas
Current Conditions -  °F | °C
As of 1:55 PM on Thursday 30 Oct 2014 (Local Time) from KSGT Reporting Station
Clear Clear  
Wind Chill: 72°   Ceiling: Unl
Heat Index: 72°   Visibility: 10mi
Dew Point: 46°   Wind: 7mph
Humidity: 41%   Direction: 160°SSE
Pressure: 30.09"   Gusts: NA
Location:  34.5894°N, 91.9107°W
Report Text: KSGT 301855Z AUTO 16006KT 10SM CLR 22/08 A3009 RMK AO1
Loading
Personal Weather Stations






























Interactive Weather Map
Tropical Storm Tracking
New forecast layout! Learn more

10-Day Weather Forecast

Advertisements
Track Severe Weather on mobile